createdAt,value
2017-12-26T00:02:00.888Z,2.60
2017-12-26T00:04:26.914Z,2.70
2017-12-26T00:06:52.903Z,2.70
2017-12-26T00:09:18.895Z,2.80
2017-12-26T00:11:44.909Z,2.90
2017-12-26T00:14:10.887Z,3.00
2017-12-26T00:16:37.623Z,3.00
2017-12-26T00:19:03.570Z,3.00
2017-12-26T00:21:30.330Z,3.10
2017-12-26T00:23:57.030Z,3.10
2017-12-26T00:26:23.056Z,3.10
2017-12-26T00:28:49.033Z,3.10
2017-12-26T00:31:15.044Z,3.10
2017-12-26T00:33:41.037Z,3.10
2017-12-26T00:36:06.996Z,3.10
2017-12-26T00:38:32.946Z,3.10
2017-12-26T00:40:58.943Z,3.10
2017-12-26T00:43:24.890Z,3.10
2017-12-26T00:45:50.834Z,3.10
2017-12-26T00:48:16.822Z,3.10
2017-12-26T00:50:42.806Z,3.10
2017-12-26T00:53:08.819Z,3.10
2017-12-26T00:55:34.806Z,3.10
2017-12-26T00:58:00.749Z,3.10
2017-12-26T01:00:26.750Z,3.10
2017-12-26T01:02:52.729Z,3.10
2017-12-26T01:05:18.677Z,3.10
2017-12-26T01:07:44.679Z,3.10
2017-12-26T01:10:10.671Z,3.20
2017-12-26T01:12:36.634Z,3.30
2017-12-26T01:15:02.658Z,3.20
2017-12-26T01:17:28.618Z,3.30
2017-12-26T01:19:54.597Z,3.20
2017-12-26T01:22:21.317Z,3.20
2017-12-26T01:24:47.305Z,3.20
2017-12-26T01:27:13.326Z,3.20
2017-12-26T01:29:40.014Z,3.10
2017-12-26T01:32:06.000Z,3.10
2017-12-26T01:34:31.954Z,3.10
2017-12-26T01:36:58.693Z,3.20
2017-12-26T01:39:24.637Z,3.20
2017-12-26T01:41:51.362Z,3.20
2017-12-26T01:44:17.314Z,3.20
2017-12-26T01:46:43.302Z,3.20
2017-12-26T01:49:09.314Z,3.20
2017-12-26T01:51:35.998Z,3.20
2017-12-26T01:54:01.945Z,3.20
2017-12-26T01:56:27.960Z,3.20
2017-12-26T01:58:53.942Z,3.20
2017-12-26T02:01:19.913Z,3.20
2017-12-26T02:03:45.878Z,3.10
2017-12-26T02:06:11.887Z,3.20
2017-12-26T02:08:37.837Z,3.20
2017-12-26T02:11:03.831Z,3.20
2017-12-26T02:13:30.598Z,3.10
2017-12-26T02:15:57.298Z,3.20
2017-12-26T02:18:23.291Z,3.20
2017-12-26T02:20:49.986Z,3.20
2017-12-26T02:23:15.929Z,3.20
2017-12-26T02:25:41.919Z,3.20
2017-12-26T02:28:07.869Z,3.20
2017-12-26T02:30:33.821Z,3.20
2017-12-26T02:32:59.802Z,3.20
2017-12-26T02:35:25.753Z,3.30
2017-12-26T02:37:52.452Z,3.20
2017-12-26T02:40:18.436Z,3.20
2017-12-26T02:42:45.145Z,3.10
2017-12-26T02:45:11.163Z,3.10
2017-12-26T02:47:37.150Z,3.20
2017-12-26T02:50:03.129Z,3.20
2017-12-26T02:52:29.114Z,3.20
2017-12-26T02:54:55.070Z,3.20
2017-12-26T02:57:21.839Z,3.20
2017-12-26T02:59:47.777Z,3.20
2017-12-26T03:02:13.783Z,3.20
2017-12-26T03:04:39.766Z,3.10
2017-12-26T03:07:05.705Z,3.10
2017-12-26T03:09:31.656Z,3.10
2017-12-26T03:11:57.681Z,3.10
2017-12-26T03:14:23.701Z,3.10
2017-12-26T03:16:49.649Z,3.10
2017-12-26T03:19:15.637Z,3.10
2017-12-26T03:21:41.607Z,3.10
2017-12-26T03:24:07.566Z,3.10
2017-12-26T03:26:33.549Z,3.10
2017-12-26T03:29:00.260Z,3.20
2017-12-26T03:31:26.245Z,3.20
2017-12-26T03:33:52.941Z,3.10
2017-12-26T03:36:18.904Z,3.10
2017-12-26T03:38:44.936Z,3.10
2017-12-26T03:41:10.976Z,3.10
2017-12-26T03:43:36.974Z,3.10
2017-12-26T03:46:02.921Z,3.10
2017-12-26T03:48:28.926Z,3.10
2017-12-26T03:50:54.884Z,3.10
2017-12-26T03:53:20.842Z,3.00
2017-12-26T03:55:46.826Z,3.00
2017-12-26T03:58:13.528Z,3.10
2017-12-26T04:00:39.522Z,3.10
2017-12-26T04:03:05.474Z,3.10
2017-12-26T04:05:31.424Z,3.10
2017-12-26T04:07:57.418Z,3.10
2017-12-26T04:10:24.140Z,3.10
2017-12-26T04:12:50.094Z,3.10
2017-12-26T04:15:16.057Z,3.10
2017-12-26T04:17:42.042Z,3.10
2017-12-26T04:20:08.017Z,3.10
2017-12-26T04:22:34.741Z,3.10
2017-12-26T04:25:00.689Z,3.00
2017-12-26T04:27:26.665Z,3.10
2017-12-26T04:29:52.717Z,3.10
2017-12-26T04:32:18.676Z,3.00
2017-12-26T04:34:44.666Z,3.00
2017-12-26T04:37:10.982Z,3.00
2017-12-26T04:39:36.922Z,3.10
2017-12-26T04:42:03.638Z,3.10
2017-12-26T04:44:29.612Z,3.10
2017-12-26T04:46:56.302Z,3.00
2017-12-26T04:49:22.240Z,3.00
2017-12-26T04:51:48.229Z,3.10
2017-12-26T04:54:14.201Z,3.10
2017-12-26T04:56:40.147Z,3.00
2017-12-26T04:59:06.133Z,3.00
2017-12-26T05:01:32.073Z,3.00
2017-12-26T05:03:58.793Z,3.10
2017-12-26T05:06:24.776Z,3.00
2017-12-26T05:08:51.486Z,3.00
2017-12-26T05:11:17.463Z,3.00
2017-12-26T05:13:44.156Z,3.10
2017-12-26T05:16:10.127Z,3.00
2017-12-26T05:18:37.034Z,3.10
2017-12-26T05:21:02.974Z,3.10
2017-12-26T05:23:29.063Z,3.10
2017-12-26T05:25:55.054Z,3.10
2017-12-26T05:28:20.998Z,3.10
2017-12-26T05:30:46.950Z,3.10
2017-12-26T05:33:12.941Z,3.10
2017-12-26T05:35:38.879Z,3.10
2017-12-26T05:38:04.867Z,3.00
2017-12-26T05:40:30.817Z,3.10
2017-12-26T05:42:56.761Z,3.10
2017-12-26T05:45:23.474Z,3.10
2017-12-26T05:47:49.420Z,3.10
2017-12-26T05:50:15.414Z,3.00
2017-12-26T05:52:41.410Z,3.00
2017-12-26T05:55:07.353Z,3.00
2017-12-26T05:57:34.064Z,3.00
2017-12-26T06:00:00.056Z,3.00
2017-12-26T06:02:26.027Z,3.00
2017-12-26T06:04:51.961Z,3.00
2017-12-26T06:07:17.973Z,3.00
2017-12-26T06:09:43.931Z,3.00
2017-12-26T06:12:09.882Z,3.00
2017-12-26T06:14:35.853Z,3.00
2017-12-26T06:17:02.534Z,3.00
2017-12-26T06:19:28.545Z,3.00
2017-12-26T06:21:55.234Z,3.00
2017-12-26T06:24:21.182Z,3.00
2017-12-26T06:26:47.166Z,3.00
2017-12-26T06:29:13.869Z,3.00
2017-12-26T06:31:39.844Z,3.00
2017-12-26T06:34:05.785Z,3.00
2017-12-26T06:36:31.777Z,3.00
2017-12-26T06:39:04.761Z,3.00
2017-12-26T06:41:30.741Z,3.00
2017-12-26T06:43:56.702Z,3.00
2017-12-26T06:46:23.433Z,3.00
2017-12-26T06:48:49.390Z,3.00
2017-12-26T06:51:16.078Z,3.00
2017-12-26T06:53:42.073Z,3.00
2017-12-26T06:56:08.773Z,3.00
2017-12-26T06:58:34.749Z,3.00
2017-12-26T07:01:00.713Z,3.00
2017-12-26T07:03:27.440Z,2.90
2017-12-26T07:05:53.389Z,2.90
2017-12-26T07:08:20.090Z,3.00
2017-12-26T07:10:46.064Z,3.00
2017-12-26T07:13:12.070Z,3.00
2017-12-26T07:15:38.063Z,3.00
2017-12-26T07:18:04.019Z,3.00
2017-12-26T07:20:36.097Z,3.00
2017-12-26T07:23:02.069Z,3.00
2017-12-26T07:25:28.762Z,3.10
2017-12-26T07:27:55.493Z,3.10
2017-12-26T07:30:21.429Z,3.10
2017-12-26T07:32:47.378Z,3.10
2017-12-26T07:35:14.116Z,3.10
2017-12-26T07:37:40.908Z,3.20
2017-12-26T07:40:06.894Z,3.10
2017-12-26T07:42:32.877Z,3.20
2017-12-26T07:44:58.874Z,3.30
2017-12-26T07:47:24.823Z,3.30
2017-12-26T07:49:50.806Z,3.40
2017-12-26T07:52:16.756Z,3.40
2017-12-26T07:54:42.783Z,3.40
2017-12-26T07:57:08.746Z,3.40
2017-12-26T07:59:34.754Z,3.50
2017-12-26T08:02:00.684Z,3.50
2017-12-26T08:04:26.650Z,3.50
2017-12-26T08:06:52.633Z,3.50
2017-12-26T08:09:18.673Z,3.50
2017-12-26T08:11:44.674Z,3.50
2017-12-26T08:14:10.632Z,3.40
2017-12-26T08:16:37.350Z,3.60
2017-12-26T08:19:03.334Z,3.50
2017-12-26T08:21:29.310Z,3.60
2017-12-26T08:23:55.257Z,3.60
2017-12-26T08:26:21.233Z,3.60
2017-12-26T08:28:47.186Z,3.50
2017-12-26T08:31:13.202Z,3.60
2017-12-26T08:33:39.171Z,3.70
2017-12-26T08:36:05.162Z,3.80
2017-12-26T08:38:38.749Z,3.80
2017-12-26T08:41:04.699Z,3.80
2017-12-26T08:43:30.678Z,3.90
2017-12-26T08:45:56.649Z,3.90
2017-12-26T08:48:22.587Z,4.00
2017-12-26T08:50:48.578Z,4.00
2017-12-26T08:53:14.536Z,4.00
2017-12-26T08:55:40.548Z,4.10
2017-12-26T08:58:06.521Z,4.10
2017-12-26T09:00:32.480Z,4.10
2017-12-26T09:02:59.214Z,4.20
2017-12-26T09:05:25.181Z,4.10
2017-12-26T09:07:51.960Z,4.20
2017-12-26T09:10:17.961Z,4.20
2017-12-26T09:12:43.925Z,4.30
2017-12-26T09:15:09.875Z,4.30
2017-12-26T09:17:35.857Z,4.30
2017-12-26T09:20:01.802Z,4.40
2017-12-26T09:22:27.742Z,4.50
2017-12-26T09:24:53.714Z,4.50
2017-12-26T09:27:19.678Z,4.60
2017-12-26T09:29:45.647Z,4.60
2017-12-26T09:32:11.715Z,4.60
2017-12-26T09:34:38.408Z,4.60
2017-12-26T09:37:04.350Z,4.60
2017-12-26T09:39:30.326Z,4.70
2017-12-26T09:41:57.011Z,4.80
2017-12-26T09:44:22.990Z,4.80
2017-12-26T09:46:48.966Z,4.80
2017-12-26T09:49:14.983Z,4.80
2017-12-26T09:51:41.686Z,5.00
2017-12-26T09:54:07.669Z,5.00
2017-12-26T09:56:33.624Z,5.00
2017-12-26T09:58:59.570Z,5.10
2017-12-26T10:01:25.534Z,5.20
2017-12-26T10:03:51.521Z,5.20
2017-12-26T10:06:18.269Z,5.20
2017-12-26T10:08:45.025Z,5.30
2017-12-26T10:11:11.735Z,5.40
2017-12-26T10:13:37.694Z,5.40
2017-12-26T10:16:03.708Z,5.50
2017-12-26T10:18:29.679Z,5.60
2017-12-26T10:20:56.362Z,5.70
2017-12-26T10:23:22.341Z,5.70
2017-12-26T10:25:48.288Z,5.80
2017-12-26T10:28:15.055Z,5.70
2017-12-26T10:30:41.108Z,5.70
2017-12-26T10:33:07.851Z,5.70
2017-12-26T10:35:34.559Z,5.60
2017-12-26T10:38:00.551Z,5.70
2017-12-26T10:40:27.246Z,5.60
2017-12-26T10:42:53.243Z,5.60
2017-12-26T10:45:19.247Z,5.50
2017-12-26T10:47:45.955Z,5.50
2017-12-26T10:50:11.965Z,5.50
2017-12-26T10:52:37.999Z,5.50
2017-12-26T10:55:03.995Z,5.70
2017-12-26T10:57:30.735Z,5.80
2017-12-26T10:59:56.750Z,5.80
2017-12-26T11:02:22.767Z,5.70
2017-12-26T11:04:48.736Z,5.60
2017-12-26T11:07:14.699Z,5.60
2017-12-26T11:09:41.431Z,5.60
2017-12-26T11:12:07.427Z,5.60
2017-12-26T11:14:33.396Z,5.70
2017-12-26T11:16:59.407Z,5.70
2017-12-26T11:19:25.379Z,5.80
2017-12-26T11:21:51.403Z,5.80
2017-12-26T11:24:17.421Z,5.90
2017-12-26T11:26:43.387Z,5.80
2017-12-26T11:29:09.355Z,5.70
2017-12-26T11:31:36.103Z,5.80
2017-12-26T11:34:02.806Z,5.70
2017-12-26T11:36:28.795Z,5.70
2017-12-26T11:38:55.543Z,5.60
2017-12-26T11:41:22.296Z,5.70
2017-12-26T11:43:48.994Z,5.80
2017-12-26T11:46:14.979Z,5.70
2017-12-26T11:48:41.002Z,5.90
2017-12-26T11:51:07.000Z,6.00
2017-12-26T11:53:33.004Z,6.10
2017-12-26T11:55:58.963Z,6.20
2017-12-26T11:58:24.994Z,6.30
2017-12-26T12:00:50.996Z,6.30
2017-12-26T12:03:17.764Z,6.40
2017-12-26T12:05:43.735Z,6.40
2017-12-26T12:08:09.706Z,6.50
2017-12-26T12:10:35.709Z,6.60
2017-12-26T12:13:01.681Z,6.70
2017-12-26T12:15:27.695Z,6.70
2017-12-26T12:17:53.680Z,6.70
2017-12-26T12:20:20.376Z,6.80
2017-12-26T12:22:46.371Z,6.80
2017-12-26T12:25:13.079Z,6.80
2017-12-26T12:27:39.055Z,6.70
2017-12-26T12:30:05.808Z,6.70
2017-12-26T12:32:32.519Z,6.60
2017-12-26T12:34:58.483Z,6.60
2017-12-26T12:37:24.496Z,6.60
2017-12-26T12:39:50.455Z,6.70
2017-12-26T12:42:16.475Z,6.70
2017-12-26T12:44:42.451Z,6.60
2017-12-26T12:47:09.155Z,6.70
2017-12-26T12:49:35.161Z,6.70
2017-12-26T12:52:01.114Z,6.70
2017-12-26T12:54:27.066Z,6.70
2017-12-26T12:56:53.083Z,6.60
2017-12-26T12:59:19.067Z,6.70
2017-12-26T13:01:45.776Z,6.70
2017-12-26T13:04:11.831Z,6.70
2017-12-26T13:06:37.783Z,6.70
2017-12-26T13:09:03.740Z,6.80
2017-12-26T13:11:30.462Z,7.00
2017-12-26T13:13:56.415Z,7.00
2017-12-26T13:16:23.169Z,7.10
2017-12-26T13:18:49.863Z,7.20
2017-12-26T13:21:15.824Z,7.20
2017-12-26T13:23:41.842Z,7.30
2017-12-26T13:26:07.827Z,7.20
2017-12-26T13:28:33.820Z,7.30
2017-12-26T13:30:59.762Z,7.40
2017-12-26T13:33:25.752Z,7.50
2017-12-26T13:35:52.466Z,7.60
2017-12-26T13:38:18.418Z,7.60
2017-12-26T13:40:45.869Z,7.70
2017-12-26T13:43:11.843Z,7.60
2017-12-26T13:45:38.562Z,7.70
2017-12-26T13:48:04.509Z,7.60
2017-12-26T13:50:30.468Z,7.70
2017-12-26T13:52:57.199Z,7.90
2017-12-26T13:55:23.235Z,7.90
2017-12-26T13:57:49.217Z,8.00
2017-12-26T14:00:15.144Z,8.00
2017-12-26T14:02:41.137Z,8.10
2017-12-26T14:05:07.078Z,8.10
2017-12-26T14:07:33.018Z,8.20
2017-12-26T14:09:59.026Z,8.20
2017-12-26T14:12:25.049Z,8.20
2017-12-26T14:14:51.002Z,8.30
2017-12-26T14:17:16.936Z,8.40
2017-12-26T14:19:42.921Z,8.40
2017-12-26T14:22:08.912Z,8.50
2017-12-26T14:24:34.909Z,8.40
2017-12-26T14:27:00.849Z,8.30
2017-12-26T14:29:26.790Z,8.10
2017-12-26T14:31:52.778Z,8.20
2017-12-26T14:34:19.466Z,8.00
2017-12-26T14:36:45.465Z,8.00
2017-12-26T14:39:12.216Z,8.10
2017-12-26T14:41:38.224Z,8.10
2017-12-26T14:44:04.221Z,8.10
2017-12-26T14:46:30.165Z,8.00
2017-12-26T14:49:03.214Z,8.00
2017-12-26T14:51:29.175Z,8.00
2017-12-26T14:53:55.966Z,7.90
2017-12-26T14:56:21.978Z,7.80
2017-12-26T14:58:47.961Z,7.80
2017-12-26T15:01:13.953Z,7.90
2017-12-26T15:03:39.957Z,7.90
2017-12-26T15:06:06.137Z,7.90
2017-12-26T15:08:32.082Z,7.80
2017-12-26T15:10:58.138Z,7.70
2017-12-26T15:13:24.107Z,7.60
2017-12-26T15:15:50.070Z,7.60
2017-12-26T15:18:16.050Z,7.70
2017-12-26T15:20:42.054Z,7.60
2017-12-26T15:23:07.993Z,7.60
2017-12-26T15:25:33.929Z,7.60
2017-12-26T15:27:59.893Z,7.50
2017-12-26T15:30:25.927Z,7.30
2017-12-26T15:32:51.949Z,7.30
2017-12-26T15:35:17.928Z,7.20
2017-12-26T15:37:43.894Z,7.10
2017-12-26T15:40:09.909Z,7.10
2017-12-26T15:42:36.887Z,7.20
2017-12-26T15:45:03.600Z,7.40
2017-12-26T15:47:29.582Z,7.30
2017-12-26T15:49:55.551Z,7.40
2017-12-26T15:52:21.558Z,7.90
2017-12-26T15:54:47.539Z,8.60
2017-12-26T15:57:13.491Z,9.00
2017-12-26T15:59:39.498Z,9.20
2017-12-26T16:02:05.458Z,9.50
2017-12-26T16:04:32.911Z,9.50
2017-12-26T16:06:58.897Z,9.60
2017-12-26T16:09:24.894Z,9.60
2017-12-26T16:11:50.869Z,9.70
2017-12-26T16:14:16.898Z,9.70
2017-12-26T16:16:43.646Z,9.60
2017-12-26T16:19:10.330Z,9.50
2017-12-26T16:21:36.330Z,9.50
2017-12-26T16:24:03.096Z,9.40
2017-12-26T16:26:29.822Z,9.30
2017-12-26T16:28:55.822Z,9.30
2017-12-26T16:31:21.793Z,9.30
2017-12-26T16:33:47.749Z,9.40
2017-12-26T16:36:14.538Z,9.40
2017-12-26T16:38:40.538Z,9.40
2017-12-26T16:41:07.262Z,9.40
2017-12-26T16:43:33.249Z,9.30
2017-12-26T16:45:59.984Z,9.20
2017-12-26T16:48:26.697Z,8.90
2017-12-26T16:50:52.663Z,8.90
2017-12-26T16:53:18.632Z,8.50
2017-12-26T16:55:44.680Z,8.10
2017-12-26T16:58:10.773Z,7.90
2017-12-26T17:00:36.762Z,7.70
2017-12-26T17:03:02.765Z,7.60
2017-12-26T17:05:29.466Z,7.10
2017-12-26T17:07:55.414Z,7.10
2017-12-26T17:10:21.446Z,7.10
2017-12-26T17:12:47.417Z,7.00
2017-12-26T17:15:14.102Z,6.60
2017-12-26T17:17:40.125Z,6.60
2017-12-26T17:20:06.078Z,6.50
2017-12-26T17:22:32.065Z,6.30
2017-12-26T17:24:58.058Z,6.30
2017-12-26T17:27:24.046Z,6.30
2017-12-26T17:29:50.009Z,6.30
2017-12-26T17:32:15.982Z,6.30
2017-12-26T17:34:41.930Z,6.40
2017-12-26T17:37:07.965Z,6.40
2017-12-26T17:39:33.924Z,6.40
2017-12-26T17:42:00.620Z,6.40
2017-12-26T17:44:26.598Z,6.40
2017-12-26T17:46:52.595Z,6.50
2017-12-26T17:49:18.591Z,6.50
2017-12-26T17:51:45.354Z,6.50
2017-12-26T17:54:12.082Z,6.50
2017-12-26T17:56:38.116Z,6.50
2017-12-26T17:59:04.179Z,6.60
2017-12-26T18:01:31.448Z,6.60
2017-12-26T18:03:58.184Z,6.70
2017-12-26T18:06:24.259Z,6.70
2017-12-26T18:08:50.218Z,6.80
2017-12-26T18:11:16.242Z,6.70
2017-12-26T18:13:42.311Z,6.80
2017-12-26T18:16:08.299Z,6.80
2017-12-26T18:18:34.282Z,6.70
2017-12-26T18:21:00.294Z,6.70
2017-12-26T18:23:26.312Z,6.70
2017-12-26T18:25:52.303Z,6.70
2017-12-26T18:28:18.356Z,6.70
2017-12-26T18:30:45.076Z,6.70
2017-12-26T18:33:11.099Z,6.70
2017-12-26T18:35:37.086Z,6.70
2017-12-26T18:38:03.062Z,6.70
2017-12-26T18:40:29.013Z,6.60
2017-12-26T18:42:55.000Z,6.60
2017-12-26T18:45:21.765Z,6.50
2017-12-26T18:47:47.791Z,6.40
2017-12-26T18:50:14.523Z,6.40
2017-12-26T18:52:40.559Z,6.40
2017-12-26T18:55:06.551Z,6.40
2017-12-26T18:57:32.598Z,6.40
2017-12-26T18:59:58.614Z,6.40
2017-12-26T19:02:26.405Z,6.30
2017-12-26T19:04:52.410Z,6.30
2017-12-26T19:07:19.137Z,6.20
2017-12-26T19:09:45.829Z,6.20
2017-12-26T19:12:11.870Z,6.20
2017-12-26T19:14:37.905Z,6.20
2017-12-26T19:17:03.881Z,6.20
2017-12-26T19:19:30.566Z,6.20
2017-12-26T19:21:56.643Z,6.20
2017-12-26T19:24:22.604Z,6.20
2017-12-26T19:26:48.614Z,6.20
2017-12-26T19:29:14.650Z,6.10
2017-12-26T19:31:40.652Z,6.00
2017-12-26T19:34:07.397Z,5.90
2017-12-26T19:36:33.407Z,5.90
2017-12-26T19:38:59.388Z,5.90
2017-12-26T19:41:26.147Z,5.80
2017-12-26T19:43:52.895Z,5.80
2017-12-26T19:46:19.674Z,5.80
2017-12-26T19:48:45.654Z,5.80
2017-12-26T19:51:11.634Z,5.80
2017-12-26T19:53:38.436Z,5.70
2017-12-26T19:56:04.472Z,5.70
2017-12-26T19:58:30.400Z,5.80
2017-12-26T20:00:56.462Z,5.70
2017-12-26T20:03:22.500Z,5.70
2017-12-26T20:05:48.516Z,5.60
2017-12-26T20:08:14.552Z,5.40
2017-12-26T20:10:40.507Z,5.40
2017-12-26T20:13:06.528Z,5.40
2017-12-26T20:15:32.625Z,5.40
2017-12-26T20:17:58.611Z,5.40
2017-12-26T20:20:24.659Z,5.30
2017-12-26T20:22:50.610Z,5.40
2017-12-26T20:25:17.393Z,5.50
2017-12-26T20:27:43.405Z,5.50
2017-12-26T20:30:10.224Z,5.60
2017-12-26T20:32:36.178Z,5.60
2017-12-26T20:35:02.172Z,5.60
2017-12-26T20:37:28.237Z,5.60
2017-12-26T20:39:54.274Z,5.70
2017-12-26T20:42:20.290Z,5.70
2017-12-26T20:44:46.278Z,5.70
2017-12-26T20:47:13.039Z,5.60
2017-12-26T20:49:39.813Z,5.50
2017-12-26T20:52:06.559Z,5.50
2017-12-26T20:54:32.576Z,5.50
2017-12-26T20:56:59.315Z,5.60
2017-12-26T20:59:25.502Z,5.60
2017-12-26T21:01:51.522Z,5.60
2017-12-26T21:04:18.242Z,5.60
2017-12-26T21:06:45.096Z,5.50
2017-12-26T21:09:11.097Z,5.50
2017-12-26T21:11:37.080Z,5.50
2017-12-26T21:14:03.126Z,5.40
2017-12-26T21:16:29.865Z,5.30
2017-12-26T21:18:56.699Z,5.20
2017-12-26T21:21:22.728Z,5.10
2017-12-26T21:23:48.737Z,5.10
2017-12-26T21:26:14.777Z,5.10
2017-12-26T21:28:40.779Z,5.10
2017-12-26T21:31:07.574Z,5.00
2017-12-26T21:33:34.313Z,4.90
2017-12-26T21:36:00.336Z,4.90
2017-12-26T21:38:27.081Z,5.00
2017-12-26T21:40:53.157Z,4.90
2017-12-26T21:43:19.188Z,5.00
2017-12-26T21:45:45.250Z,5.00
2017-12-26T21:48:11.301Z,5.00
2017-12-26T21:50:37.295Z,4.90
2017-12-26T21:53:03.406Z,5.00
2017-12-26T21:55:30.179Z,4.90
2017-12-26T21:57:56.961Z,4.90
2017-12-26T22:00:23.045Z,4.80
2017-12-26T22:02:49.836Z,4.80
2017-12-26T22:05:15.828Z,4.80
2017-12-26T22:07:42.612Z,4.80
2017-12-26T22:10:09.471Z,4.80
2017-12-26T22:12:36.203Z,4.70
2017-12-26T22:15:02.232Z,4.70
2017-12-26T22:17:28.232Z,4.70
2017-12-26T22:19:54.267Z,4.70
2017-12-26T22:22:20.247Z,4.70
2017-12-26T22:24:46.986Z,4.50
2017-12-26T22:27:13.001Z,4.50
2017-12-26T22:29:38.992Z,4.50
2017-12-26T22:32:05.789Z,4.50
2017-12-26T22:34:31.801Z,4.50
2017-12-26T22:36:57.804Z,4.40
2017-12-26T22:39:23.868Z,4.40
2017-12-26T22:41:49.899Z,4.40
2017-12-26T22:44:16.696Z,4.40
2017-12-26T22:46:43.439Z,4.40
2017-12-26T22:49:09.466Z,4.40
2017-12-26T22:51:35.509Z,4.40
2017-12-26T22:54:01.517Z,4.40
2017-12-26T22:56:28.296Z,4.30
2017-12-26T22:58:54.364Z,4.30
2017-12-26T23:01:20.388Z,4.30
2017-12-26T23:03:53.480Z,4.30
2017-12-26T23:06:20.234Z,4.20
2017-12-26T23:08:46.289Z,4.20
2017-12-26T23:11:12.285Z,4.20
2017-12-26T23:13:39.047Z,4.30
2017-12-26T23:16:11.078Z,4.30
2017-12-26T23:18:37.099Z,4.20
2017-12-26T23:21:03.082Z,4.20
2017-12-26T23:23:35.967Z,4.20
2017-12-26T23:26:08.056Z,4.30
2017-12-26T23:28:40.999Z,4.20
2017-12-26T23:31:13.172Z,4.20
2017-12-26T23:33:45.476Z,4.20
2017-12-26T23:36:17.636Z,4.20
2017-12-26T23:38:49.856Z,4.20
2017-12-26T23:41:21.963Z,4.20
2017-12-26T23:46:54.316Z,4.20
2017-12-26T23:49:26.392Z,4.30
2017-12-26T23:51:58.636Z,4.30
2017-12-26T23:54:30.823Z,4.20
2017-12-26T23:57:03.026Z,4.20
2017-12-26T23:59:35.278Z,4.20
